Time;durP1;ratioP1;P1;durP2;ratioP2;P2;SDS_P1;SDS_P2;PMS_P1;PMS_P2;Temp;Humidity;BMP_temperature;BMP_pressure;BME280_temperature;BME280_humidity;BME280_pressure;Samples;Min_cycle;Max_cycle;Signal;HPM_P1;HPM_P2
2022/01/14 00:02:03;;;;;;;5.23;3.23;;;;;;;10.96;42.83;101727.06;4906610;29;20063;-76
2022/01/14 00:04:30;;;;;;;10.00;4.13;;;;;;;10.98;43.48;101742.47;4908204;29;20467;-75
2022/01/14 00:06:57;;;;;;;6.07;2.87;;;;;;;10.94;43.53;101752.47;4907113;29;22019;-77
2022/01/14 00:09:25;;;;;;;5.73;3.60;;;;;;;10.87;43.54;101747.06;4905451;29;20052;-76
2022/01/14 00:11:56;;;;;;;5.47;3.17;;;;;;;10.88;43.42;101747.91;4905212;29;20102;-76
2022/01/14 00:14:40;;;;;;;4.63;2.73;;;;;;;10.80;43.56;101749.16;4909490;29;20555;-83
2022/01/14 00:17:12;;;;;;;6.67;4.33;;;;;;;10.79;43.56;101743.81;4906160;29;20103;-83
2022/01/14 00:19:41;;;;;;;6.23;3.00;;;;;;;10.59;43.61;101719.16;4906891;29;20116;-86
2022/01/14 00:22:13;;;;;;;4.63;2.87;;;;;;;10.68;43.73;101737.22;4903846;29;20063;-85
2022/01/14 00:33:09;;;;;;;8.80;3.60;;;;;;;10.42;44.42;101744.25;4909469;29;20078;-85
2022/01/14 00:35:44;;;;;;;4.73;2.37;;;;;;;10.13;44.52;101695.97;4907155;29;20143;-86
2022/01/14 00:38:13;;;;;;;4.03;2.30;;;;;;;10.45;44.37;101749.34;4908556;29;20131;-87
2022/01/14 00:40:40;;;;;;;3.27;2.60;;;;;;;10.39;44.25;101739.19;4907062;29;20162;-86
2022/01/14 00:43:08;;;;;;;5.70;3.27;;;;;;;10.35;44.46;101735.19;4901807;29;20090;-84
2022/01/14 00:45:36;;;;;;;6.30;2.77;;;;;;;10.35;44.37;101743.56;4909682;29;20135;-83
2022/01/14 00:48:03;;;;;;;3.87;2.63;;;;;;;10.24;44.84;101727.69;4910221;29;20079;-83
2022/01/14 00:50:30;;;;;;;2.13;1.80;;;;;;;9.87;45.07;101689.84;4905050;29;20044;-83
2022/01/14 00:52:57;;;;;;;8.50;3.07;;;;;;;10.25;44.89;101737.75;4905409;29;20147;-73
2022/01/14 00:55:30;;;;;;;6.10;2.97;;;;;;;10.10;45.15;101725.22;4904384;29;20134;-84
2022/01/14 01:00:28;;;;;;;;;;;;;;;9.94;45.69;101742.72;4907315;29;20164;-90
2022/01/14 01:02:55;;;;;;;1.97;1.70;;;;;;;10.01;45.71;101734.22;4911147;29;19970;-83
2022/01/14 01:05:23;;;;;;;3.80;2.30;;;;;;;9.99;45.74;101726.09;4909051;29;20075;-80
2022/01/14 01:08:03;;;;;;;7.47;3.43;;;;;;;10.08;45.68;101737.72;4907806;29;20130;-81
2022/01/14 01:10:32;;;;;;;3.67;2.40;;;;;;;10.01;45.72;101731.44;4907250;29;20064;-79
2022/01/14 01:13:09;;;;;;;3.80;2.17;;;;;;;9.92;45.77;101711.44;4911117;29;20147;-79
2022/01/14 01:15:38;;;;;;;5.27;2.67;;;;;;;9.95;45.77;101734.13;4905961;29;20132;-79
2022/01/14 01:18:05;;;;;;;3.87;2.97;;;;;;;9.95;45.97;101734.13;4904671;29;20063;-79
2022/01/14 01:20:32;;;;;;;2.97;1.87;;;;;;;9.89;46.05;101726.75;4907238;29;20040;-79
2022/01/14 01:22:59;;;;;;;4.53;2.03;;;;;;;9.93;45.96;101730.72;4905780;29;20482;-79
2022/01/14 01:25:29;;;;;;;3.80;2.60;;;;;;;9.95;45.96;101733.28;4912112;29;20139;-80
2022/01/14 01:27:56;;;;;;;3.23;2.20;;;;;;;9.80;46.13;101719.00;4910139;29;20499;-77
2022/01/14 01:32:57;;;;;;;5.07;2.33;;;;;;;9.89;46.20;101737.06;4911365;29;20134;-85
2022/01/14 01:35:24;;;;;;;2.33;1.47;;;;;;;9.77;46.28;101719.50;4910387;29;20048;-86
2022/01/14 01:37:51;;;;;;;3.60;2.40;;;;;;;9.91;46.28;101732.94;4908804;29;20174;-87
2022/01/14 01:40:20;;;;;;;2.87;2.33;;;;;;;9.88;46.13;101726.97;4912116;29;20135;-80
2022/01/14 01:42:48;;;;;;;4.13;2.03;;;;;;;9.92;46.10;101731.81;4912670;29;20139;-77
2022/01/14 01:45:23;;;;;;;6.10;3.60;;;;;;;9.82;46.26;101716.81;4910794;29;20076;-72
2022/01/14 01:47:54;;;;;;;1.90;1.50;;;;;;;9.86;46.32;101723.59;4912165;29;20104;-76
2022/01/14 01:50:24;;;;;;;4.30;2.33;;;;;;;9.78;45.86;101710.03;4910526;29;20048;-75
2022/01/14 01:52:52;;;;;;;;;;;;;;;9.58;46.98;101736.41;4920136;29;20098;-73
2022/01/14 01:55:20;;;;;;;2.27;1.50;;;;;;;9.73;46.78;101728.34;4911751;29;19923;-75
2022/01/14 01:57:52;;;;;;;4.27;2.77;;;;;;;9.70;46.72;101717.69;4909428;29;20064;-76
2022/01/14 02:00:24;;;;;;;4.33;2.33;;;;;;;9.81;46.42;101729.06;4911118;29;20144;-80
2022/01/14 02:02:53;;;;;;;7.53;2.63;;;;;;;9.55;46.67;101683.91;4910130;29;20151;-77
2022/01/14 02:05:22;;;;;;;2.90;1.53;;;;;;;9.70;46.47;101709.31;4910682;29;20594;-84
2022/01/14 02:07:49;;;;;;;6.47;2.27;;;;;;;9.64;46.55;101699.16;4914002;29;20298;-75
2022/01/14 02:10:16;;;;;;;1.27;1.13;;;;;;;9.80;46.62;101735.75;4908423;29;20591;-75
2022/01/14 02:12:50;;;;;;;6.37;3.30;;;;;;;9.63;46.66;101704.97;4911182;29;20075;-75
2022/01/14 02:23:33;;;;;;;2.73;2.13;;;;;;;9.56;46.65;101713.47;4909725;29;20487;-72
2022/01/14 02:26:00;;;;;;;9.80;2.63;;;;;;;9.65;46.75;101716.75;4900840;29;20053;-76
2022/01/14 02:28:27;;;;;;;5.87;2.70;;;;;;;9.68;46.82;101733.00;4909513;29;20150;-77
2022/01/14 02:30:54;;;;;;;5.27;3.30;;;;;;;9.70;46.79;101744.72;4909527;29;20169;-78
2022/01/14 02:33:21;;;;;;;2.93;2.00;;;;;;;9.35;47.01;101697.41;4912981;29;20066;-74
2022/01/14 02:35:50;;;;;;;1.87;1.53;;;;;;;9.66;46.97;101747.16;4907449;29;20490;-82
2022/01/14 02:38:18;;;;;;;2.90;1.83;;;;;;;9.62;47.03;101745.97;4907364;29;20056;-81
2022/01/14 02:40:47;;;;;;;2.00;1.37;;;;;;;9.48;47.32;101730.59;4904245;29;20139;-84
2022/01/14 02:43:16;;;;;;;4.07;2.13;;;;;;;9.37;47.39;101723.09;4910723;29;20139;-82
2022/01/14 02:45:51;;;;;;;6.03;3.05;;;;;;;9.45;47.57;101731.94;4912054;29;20142;-84
2022/01/14 02:48:24;;;;;;;1.77;1.67;;;;;;;9.39;47.43;101718.13;4906602;29;20156;-84
2022/01/14 02:56:02;;;;;;;2.73;1.53;;;;;;;9.20;47.78;101709.06;4905803;29;20104;-84
2022/01/14 02:58:31;;;;;;;1.80;1.10;;;;;;;9.30;47.85;101737.16;4908359;29;20566;-82
2022/01/14 03:01:03;;;;;;;1.53;1.43;;;;;;;8.95;48.01;101700.91;4910600;29;20137;-82
2022/01/14 03:03:31;;;;;;;2.30;1.30;;;;;;;9.25;48.19;101737.88;4908624;29;20313;-85
2022/01/14 03:06:00;;;;;;;4.03;1.97;;;;;;;9.06;48.23;101714.03;4907082;29;20148;-83
2022/01/14 03:08:28;;;;;;;2.70;1.60;;;;;;;9.04;48.55;101724.56;4905116;29;20584;-84
2022/01/14 03:11:00;;;;;;;3.00;1.53;;;;;;;9.06;48.64;101739.09;4907975;29;20062;-78
2022/01/14 03:13:27;;;;;;;1.47;1.23;;;;;;;8.93;48.75;101719.84;4910422;29;20155;-80
2022/01/14 03:15:54;;;;;;;2.43;1.53;;;;;;;8.87;48.97;101720.78;4909801;29;20056;-80
2022/01/14 03:18:31;;;;;;;1.80;1.37;;;;;;;8.95;49.12;101739.94;4911146;29;20143;-73
2022/01/14 03:21:09;;;;;;;5.87;2.90;;;;;;;8.72;49.37;101715.69;4907205;29;20088;-73
2022/01/14 03:23:51;;;;;;;4.47;2.40;;;;;;;8.68;49.66;101720.91;4909893;29;20534;-72
2022/01/14 03:26:21;;;;;;;5.20;2.37;;;;;;;8.60;49.88;101715.66;4903394;29;20076;-72
2022/01/14 03:28:48;;;;;;;3.90;2.55;;;;;;;8.69;49.96;101739.28;4905327;29;20530;-73
2022/01/14 03:31:15;;;;;;;4.73;1.83;;;;;;;8.58;50.01;101717.84;4908711;29;20143;-76
2022/01/14 03:33:42;;;;;;;2.93;1.77;;;;;;;8.64;50.05;101736.38;4910580;29;20083;-72
2022/01/14 03:36:10;;;;;;;8.87;2.80;;;;;;;8.55;50.24;101721.13;4907057;29;20389;-72
2022/01/14 03:38:37;;;;;;;6.17;1.93;;;;;;;8.50;50.24;101718.19;4909333;29;20130;-72
2022/01/14 03:41:06;;;;;;;5.37;2.13;;;;;;;8.64;50.30;101736.38;4905741;29;20071;-74
2022/01/14 03:43:35;;;;;;;4.30;2.67;;;;;;;8.67;50.09;101733.09;4905595;29;20166;-75
2022/01/14 03:46:03;;;;;;;2.77;1.80;;;;;;;8.51;50.14;101698.47;4907235;29;22317;-75
2022/01/14 03:48:30;;;;;;;1.20;1.10;;;;;;;8.66;49.78;101720.28;4909320;29;20132;-74
2022/01/14 03:50:57;;;;;;;2.33;1.40;;;;;;;8.77;49.83;101725.00;4913095;29;20075;-73
2022/01/14 03:53:24;;;;;;;1.10;1.00;;;;;;;8.65;49.69;101706.56;4910695;29;20534;-73
2022/01/14 03:55:51;;;;;;;1.37;1.27;;;;;;;8.75;49.58;101710.50;4906726;29;20563;-74
2022/01/14 03:58:37;;;;;;;2.43;1.80;;;;;;;8.65;49.35;101687.97;4908504;29;20063;-77
2022/01/14 04:01:06;;;;;;;4.43;2.17;;;;;;;8.84;49.05;101702.63;4907269;29;20071;-76
2022/01/14 04:03:34;;;;;;;7.05;3.13;;;;;;;8.84;48.89;101696.19;4910499;29;20507;-76
2022/01/14 04:06:03;;;;;;;4.27;2.70;;;;;;;8.93;48.73;101709.53;4910777;29;20087;-77
2022/01/14 04:08:31;;;;;;;3.43;2.03;;;;;;;9.02;49.06;101726.72;4909777;29;20052;-77
2022/01/14 04:11:00;;;;;;;5.57;1.93;;;;;;;9.02;48.93;101719.25;4905398;29;20148;-79
2022/01/14 04:13:39;;;;;;;2.90;1.73;;;;;;;9.13;48.69;101713.91;4906972;29;20142;-79
2022/01/14 04:16:06;;;;;;;6.10;2.50;;;;;;;9.29;48.34;101717.88;4908794;29;20463;-79
2022/01/14 04:18:34;;;;;;;4.97;2.33;;;;;;;9.17;48.44;101707.59;4911166;29;20048;-78
2022/01/14 04:21:02;;;;;;;2.37;1.60;;;;;;;9.11;48.75;101716.91;4910710;29;20080;-79
2022/01/14 04:23:29;;;;;;;3.73;2.00;;;;;;;9.15;48.52;101711.72;4901072;29;20138;-77
2022/01/14 04:26:05;;;;;;;4.93;3.10;;;;;;;9.11;48.52;101705.78;4901634;29;20079;-74
2022/01/14 04:28:36;;;;;;;1.83;1.60;;;;;;;9.10;48.51;101695.72;4907045;29;20052;-74
2022/01/14 04:31:05;;;;;;;2.43;1.80;;;;;;;9.16;48.37;101710.59;4907311;29;20154;-73
2022/01/14 04:33:35;;;;;;;6.78;3.20;;;;;;;8.89;48.72;101652.63;4911408;29;20606;-73
2022/01/14 04:36:03;;;;;;;3.57;1.57;;;;;;;9.15;48.25;101687.47;4919884;29;20099;-75
2022/01/14 04:38:31;;;;;;;3.70;2.80;;;;;;;9.14;48.65;101705.28;4902310;29;20052;-74
2022/01/14 04:40:58;;;;;;;4.93;3.10;;;;;;;9.12;48.44;101692.69;4906251;29;20076;-78
2022/01/14 04:43:25;;;;;;;1.80;1.33;;;;;;;9.20;48.20;101693.19;4906080;29;20075;-81
2022/01/14 04:46:23;;;;;;;7.37;1.90;;;;;;;9.34;48.03;101709.66;4909706;29;20144;-86
2022/01/14 04:48:48;;;;;;;16.00;2.67;;;;;;;9.18;48.46;101702.88;4906514;29;20060;-77
2022/01/14 04:51:15;;;;;;;1.27;1.17;;;;;;;9.13;48.71;101711.97;4905561;29;20139;-81
2022/01/14 04:53:44;;;;;;;7.43;3.30;;;;;;;8.99;49.03;101707.69;4906772;29;20064;-83
2022/01/14 04:56:13;;;;;;;5.63;3.47;;;;;;;8.82;49.08;101685.31;4885735;29;20156;-79
2022/01/14 04:58:42;;;;;;;6.60;3.47;;;;;;;8.96;49.11;101705.44;4900745;29;20400;-81
2022/01/14 05:01:09;;;;;;;3.80;2.13;;;;;;;8.96;49.20;101711.00;4909847;29;20152;-81
2022/01/14 05:03:36;;;;;;;5.80;2.97;;;;;;;8.95;49.27;101701.75;4910017;29;20052;-81
2022/01/14 05:06:05;;;;;;;5.17;2.90;;;;;;;8.98;49.24;101706.00;4912149;29;20064;-84
2022/01/14 05:08:39;;;;;;;6.43;3.10;;;;;;;8.91;49.28;101700.56;4911265;29;20135;-82
2022/01/14 05:13:44;;;;;;;2.40;2.20;;;;;;;8.82;49.67;101713.16;4907836;29;20083;-82
2022/01/14 05:16:11;;;;;;;6.77;3.23;;;;;;;8.82;49.71;101706.72;4918546;29;20147;-80
2022/01/14 05:18:39;;;;;;;3.40;1.20;;;;;;;8.69;50.00;101703.09;4914321;29;20110;-75
2022/01/14 05:21:06;;;;;;;0.73;0.73;;;;;;;8.51;50.28;101687.34;4907885;29;20055;-74
2022/01/14 05:23:33;;;;;;;2.37;1.90;;;;;;;8.47;50.45;101685.25;4926207;29;20107;-77
2022/01/14 05:26:00;;;;;;;2.53;1.70;;;;;;;8.38;50.54;101689.47;4907167;29;20140;-78
2022/01/14 05:28:27;;;;;;;6.10;3.00;;;;;;;8.49;50.51;101691.44;4912533;29;20138;-73
2022/01/14 05:30:54;;;;;;;7.43;2.53;;;;;;;8.46;50.41;101678.84;4908730;29;20080;-71
2022/01/14 05:33:21;;;;;;;4.87;2.70;;;;;;;8.53;50.67;101704.63;4911913;29;20503;-74
2022/01/14 05:35:48;;;;;;;6.60;3.40;;;;;;;8.45;50.73;101698.56;4912816;29;20467;-75
2022/01/14 05:38:15;;;;;;;2.00;1.50;;;;;;;8.38;51.21;101703.41;4909900;29;20457;-73
2022/01/14 05:40:41;;;;;;;2.33;1.07;;;;;;;8.29;50.85;101692.56;4912877;29;20094;-70
2022/01/14 05:43:08;;;;;;;5.60;3.80;;;;;;;8.34;51.04;101688.19;4915058;29;20582;-71
2022/01/14 05:45:35;;;;;;;5.30;2.67;;;;;;;8.28;51.19;101690.88;4908430;29;20144;-72
2022/01/14 05:48:02;;;;;;;1.93;1.27;;;;;;;8.25;51.47;101687.72;4912968;29;20147;-77
2022/01/14 05:50:29;;;;;;;2.83;2.20;;;;;;;8.25;51.35;101696.91;4913298;29;20044;-72
2022/01/14 05:52:56;;;;;;;2.20;1.50;;;;;;;8.24;51.47;101700.78;4911828;29;20134;-72
2022/01/14 05:55:23;;;;;;;12.83;1.23;;;;;;;8.20;51.52;101691.19;4913879;29;20144;-72
2022/01/14 05:57:50;;;;;;;3.53;2.13;;;;;;;8.19;51.44;101691.44;4910631;29;20095;-72
2022/01/14 06:00:19;;;;;;;3.20;2.17;;;;;;;8.26;51.59;101703.31;4904769;29;20144;-74
2022/01/14 06:02:48;;;;;;;4.43;2.77;;;;;;;8.24;51.68;101705.50;4910775;29;20475;-73
2022/01/14 06:05:17;;;;;;;3.65;2.92;;;;;;;8.16;51.45;101689.97;4917595;29;20299;-73
2022/01/14 06:07:44;;;;;;;5.73;1.90;;;;;;;8.25;51.39;101696.06;4912723;29;20135;-76
2022/01/14 06:10:11;;;;;;;3.97;1.47;;;;;;;8.27;51.60;101716.13;4917108;29;20545;-77
2022/01/14 06:12:38;;;;;;;3.97;2.07;;;;;;;8.20;51.40;101695.91;4904206;29;20138;-84
2022/01/14 06:15:06;;;;;;;2.10;1.53;;;;;;;8.01;51.49;101665.38;4914534;29;20083;-85
2022/01/14 06:17:33;;;;;;;2.23;1.70;;;;;;;8.13;51.79;101679.31;4910613;29;20087;-84
2022/01/14 06:20:00;;;;;;;4.07;2.30;;;;;;;8.11;51.73;101694.56;4901767;29;20131;-76
2022/01/14 06:22:28;;;;;;;2.23;1.80;;;;;;;8.16;51.90;101709.44;4897577;29;20146;-78
2022/01/14 06:24:56;;;;;;;5.07;2.47;;;;;;;8.14;51.71;101689.38;4900146;29;20970;-78
2022/01/14 06:27:23;;;;;;;1.83;1.23;;;;;;;8.05;51.79;101685.22;4910358;29;20146;-78
2022/01/14 06:29:50;;;;;;;1.37;1.20;;;;;;;8.01;51.98;101701.53;4908756;29;20078;-78
2022/01/14 06:32:17;;;;;;;3.47;2.73;;;;;;;8.03;51.96;101687.38;4904988;29;20227;-80
2022/01/14 06:34:43;;;;;;;5.53;2.13;;;;;;;7.90;51.95;101665.31;4908001;29;20665;-73
2022/01/14 06:37:15;;;;;;;7.73;3.10;;;;;;;7.98;51.88;101690.03;4906770;29;20055;-76
2022/01/14 06:39:42;;;;;;;4.23;2.03;;;;;;;8.01;51.71;101689.56;4906423;29;20223;-72
2022/01/14 06:42:09;;;;;;;4.40;2.37;;;;;;;8.12;52.09;101707.38;4905561;29;20053;-73
2022/01/14 06:44:36;;;;;;;5.53;2.13;;;;;;;7.75;52.10;101658.25;4907176;29;20099;-70
2022/01/14 06:47:03;;;;;;;1.03;1.00;;;;;;;8.09;52.03;101708.69;4906595;29;20087;-77
2022/01/14 06:49:30;;;;;;;1.60;1.00;;;;;;;8.02;52.00;101697.66;4904232;29;20055;-68
2022/01/14 06:51:57;;;;;;;8.40;1.40;;;;;;;7.92;52.09;101680.69;4900682;29;20155;-68
2022/01/14 06:54:24;;;;;;;2.20;1.57;;;;;;;8.06;51.88;101703.59;4902489;29;20170;-68
2022/01/14 06:56:51;;;;;;;5.00;2.73;;;;;;;8.12;51.67;101711.00;4897278;29;20065;-69
2022/01/14 06:59:17;;;;;;;1.53;1.43;;;;;;;8.08;51.63;101696.72;4905626;29;20147;-68
2022/01/14 07:01:44;;;;;;;2.70;1.90;;;;;;;8.27;51.57;101721.69;4907605;29;20135;-68
2022/01/14 07:04:11;;;;;;;2.83;2.03;;;;;;;8.13;51.63;101706.28;4899998;29;20045;-69
2022/01/14 07:06:38;;;;;;;3.43;2.10;;;;;;;8.12;51.53;101702.66;4935992;29;20138;-68
2022/01/14 07:09:05;;;;;;;7.70;3.13;;;;;;;8.18;51.88;101723.13;4904610;29;20083;-68
2022/01/14 07:11:36;;;;;;;1.27;1.17;;;;;;;7.96;52.14;101711.66;4909012;29;20512;-67
2022/01/14 07:14:07;;;;;;;3.43;2.23;;;;;;;8.03;52.23;101726.31;4911549;29;20104;-68
2022/01/14 07:16:34;;;;;;;3.03;1.67;;;;;;;7.86;52.67;101719.72;4909155;29;20135;-68
2022/01/14 07:19:03;;;;;;;4.37;2.33;;;;;;;7.87;52.71;101729.78;4907647;29;20044;-69
2022/01/14 07:21:34;;;;;;;1.30;1.03;;;;;;;7.68;53.00;101713.09;4909055;29;20079;-69
2022/01/14 07:24:03;;;;;;;1.33;1.20;;;;;;;7.71;53.08;101720.97;4907936;29;20067;-68
2022/01/14 07:26:30;;;;;;;2.43;1.80;;;;;;;7.53;53.32;101694.03;4906776;29;20440;-69
2022/01/14 07:28:57;;;;;;;3.00;2.17;;;;;;;7.63;53.34;101717.69;4910340;29;20488;-69
2022/01/14 07:31:24;;;;;;;2.67;1.53;;;;;;;7.58;53.53;101710.00;4901381;29;20127;-68
2022/01/14 07:33:51;;;;;;;2.33;2.13;;;;;;;7.69;53.05;101731.50;4905649;29;20059;-68
2022/01/14 07:36:18;;;;;;;2.70;1.27;;;;;;;7.29;53.54;101681.94;4904746;29;20555;-69
2022/01/14 07:38:44;;;;;;;3.27;2.07;;;;;;;7.50;53.56;101713.13;4907084;29;20164;-70
2022/01/14 07:41:11;;;;;;;2.97;2.17;;;;;;;7.50;53.85;101707.56;4906519;29;20242;-69
2022/01/14 07:43:38;;;;;;;4.87;2.47;;;;;;;7.64;53.53;101713.81;4903840;29;20159;-69
2022/01/14 07:46:08;;;;;;;4.13;2.00;;;;;;;7.63;53.43;101721.31;4905628;29;20060;-69
2022/01/14 07:48:35;;;;;;;1.83;1.65;;;;;;;7.69;53.23;101730.63;4901442;29;20194;-69
2022/01/14 07:51:03;;;;;;;3.23;1.63;;;;;;;7.69;53.00;101725.94;4907229;29;20475;-69
2022/01/14 07:53:30;;;;;;;4.73;1.77;;;;;;;7.72;52.94;101738.50;4907585;29;20139;-69
2022/01/14 07:55:57;;;;;;;2.87;2.07;;;;;;;7.79;52.74;101730.91;4910822;29;20076;-69
2022/01/14 07:58:25;;;;;;;1.60;1.30;;;;;;;7.69;52.34;101719.50;4907496;29;20160;-69
2022/01/14 08:00:53;;;;;;;3.30;1.80;;;;;;;7.89;52.22;101736.78;4907444;29;20059;-69
2022/01/14 08:03:20;;;;;;;5.27;2.07;;;;;;;7.86;52.24;101730.84;4906939;29;20515;-70
2022/01/14 08:05:49;;;;;;;2.40;1.80;;;;;;;8.04;51.80;101745.59;4901414;29;21333;-68
2022/01/14 08:08:16;;;;;;;2.63;1.87;;;;;;;7.96;51.42;101706.09;4904247;29;20135;-68
2022/01/14 08:10:43;;;;;;;1.43;1.30;;;;;;;8.21;51.36;101744.94;4905647;29;20419;-70
2022/01/14 08:13:10;;;;;;;1.93;1.53;;;;;;;8.18;50.74;101739.84;4904276;29;20076;-69
2022/01/14 08:15:36;;;;;;;2.97;2.17;;;;;;;8.26;51.20;101753.41;4905050;29;20162;-69
2022/01/14 08:18:04;;;;;;;3.40;2.43;;;;;;;8.18;51.20;101740.69;4911405;29;20048;-69
2022/01/14 08:20:32;;;;;;;3.70;1.70;;;;;;;8.31;50.96;101746.06;4912889;29;20082;-69
2022/01/14 08:23:00;;;;;;;3.63;2.43;;;;;;;8.59;50.58;101764.09;4907603;29;20103;-69
2022/01/14 08:25:28;;;;;;;1.80;1.47;;;;;;;8.83;50.07;101748.28;4910174;29;20499;-68
2022/01/14 08:27:55;;;;;;;2.53;1.70;;;;;;;8.87;49.76;101737.50;4905282;29;20052;-68
2022/01/14 08:30:21;;;;;;;3.07;1.53;;;;;;;9.12;49.39;101760.41;4908163;29;20139;-69
2022/01/14 08:32:48;;;;;;;3.63;2.60;;;;;;;9.26;48.62;101749.88;4906670;29;20100;-68
2022/01/14 08:35:15;;;;;;;2.77;1.90;;;;;;;9.39;48.00;101751.56;4908903;29;20155;-69
2022/01/14 08:37:42;;;;;;;4.30;1.97;;;;;;;9.58;47.84;101761.50;4906048;29;20139;-69
2022/01/14 08:40:10;;;;;;;3.00;1.60;;;;;;;9.71;47.55;101741.72;4908459;29;20143;-69
2022/01/14 08:42:37;;;;;;;1.57;1.40;;;;;;;9.93;47.23;101749.41;4904147;29;20147;-69
2022/01/14 08:45:05;;;;;;;2.17;1.97;;;;;;;9.94;46.77;101748.31;4909998;29;20506;-69
2022/01/14 08:47:33;;;;;;;2.53;1.37;;;;;;;9.77;46.93;101742.66;4905735;29;20083;-72
2022/01/14 08:49:59;;;;;;;2.70;1.70;;;;;;;10.03;46.63;101746.00;4902534;29;20072;-70
2022/01/14 08:52:27;;;;;;;3.87;1.77;;;;;;;10.39;46.13;101750.34;4900580;29;20054;-72
2022/01/14 08:54:53;;;;;;;2.93;1.97;;;;;;;10.62;45.46;101755.81;4908516;29;20165;-70
2022/01/14 08:57:23;;;;;;;4.75;3.13;;;;;;;10.83;45.24;101767.34;4907596;29;20061;-71
2022/01/14 08:59:50;;;;;;;8.00;5.03;;;;;;;10.89;44.90;101744.84;4904116;29;20079;-71
2022/01/14 09:02:18;;;;;;;5.70;4.00;;;;;;;11.20;44.17;101767.69;4900097;29;20087;-71
2022/01/14 09:04:46;;;;;;;5.30;4.07;;;;;;;11.23;43.86;101735.59;4911770;29;20053;-72
2022/01/14 09:09:40;;;;;;;6.63;3.70;;;;;;;11.98;42.85;101768.59;4895925;29;20067;-67
2022/01/14 09:12:11;;;;;;;4.17;2.47;;;;;;;11.85;42.69;101766.16;4912363;29;20139;-66
2022/01/14 09:14:37;;;;;;;;;;;;;;;11.52;43.39;101767.06;4916063;29;20091;-66
2022/01/14 09:17:04;;;;;;;4.20;2.57;;;;;;;11.56;43.45;101771.91;4912569;29;20022;-65
2022/01/14 09:19:31;;;;;;;6.33;3.47;;;;;;;11.82;43.10;101775.88;4902179;29;20521;-64
2022/01/14 09:21:58;;;;;;;3.40;2.33;;;;;;;12.09;42.85;101776.00;4908578;29;20080;-66
2022/01/14 09:24:46;;;;;;;3.63;3.03;;;;;;;11.69;42.78;101719.44;4915386;29;20153;-66
2022/01/14 09:27:14;;;;;;;4.60;2.73;;;;;;;11.90;42.57;101737.38;4911617;29;20448;-66
2022/01/14 09:29:42;;;;;;;5.90;3.73;;;;;;;12.02;42.66;101775.34;4912471;29;20214;-67
2022/01/14 09:32:10;;;;;;;3.43;2.80;;;;;;;12.32;42.31;101768.44;4910040;29;20586;-67
2022/01/14 09:34:38;;;;;;;3.67;2.73;;;;;;;12.89;41.62;101781.91;4911213;29;20086;-65
2022/01/14 09:37:04;;;;;;;2.90;1.83;;;;;;;13.22;40.48;101721.03;4914404;29;20152;-66
2022/01/14 09:39:32;;;;;;;4.07;3.00;;;;;;;13.92;39.70;101781.56;4913407;29;20478;-67
2022/01/14 09:42:00;;;;;;;8.80;2.30;;;;;;;14.31;38.91;101778.34;4907315;29;20048;-66
2022/01/14 09:44:27;;;;;;;2.77;2.23;;;;;;;14.58;38.54;101778.16;4908159;29;20144;-66
2022/01/14 09:46:54;;;;;;;4.70;2.77;;;;;;;14.46;38.00;101764.34;4910522;29;20427;-66
2022/01/14 09:49:22;;;;;;;2.97;2.30;;;;;;;14.53;38.12;101780.09;4913601;29;20052;-66
2022/01/14 09:51:49;;;;;;;4.00;3.07;;;;;;;14.32;37.71;101745.47;4916435;29;20119;-66
2022/01/14 09:54:15;;;;;;;4.03;2.67;;;;;;;14.88;37.64;101785.81;4914705;29;20056;-66
2022/01/14 09:56:45;;;;;;;11.77;4.67;;;;;;;15.12;37.05;101771.19;4914301;29;20075;-66
2022/01/14 09:59:12;;;;;;;5.83;2.70;;;;;;;15.26;36.71;101766.69;4907479;29;20052;-67
2022/01/14 10:01:42;;;;;;;6.03;3.83;;;;;;;15.55;36.13;101774.53;4911192;29;20135;-67
2022/01/14 10:04:27;;;;;;;8.67;3.73;;;;;;;16.11;35.72;101771.59;4916150;29;20059;-67
2022/01/14 10:06:59;;;;;;;7.93;4.17;;;;;;;16.03;34.93;101741.16;4922483;29;20108;-66
2022/01/14 10:09:40;;;;;;;3.88;3.00;;;;;;;16.20;34.95;101769.00;4918682;29;20146;-67
2022/01/14 10:12:13;;;;;;;3.40;3.10;;;;;;;16.29;35.20;101773.75;4910733;29;20091;-67
2022/01/14 10:14:43;;;;;;;4.83;2.83;;;;;;;16.33;35.10;101774.00;4912060;29;20059;-65
2022/01/14 10:17:11;;;;;;;11.52;5.20;;;;;;;16.13;34.57;101717.72;4916312;29;20111;-66
2022/01/14 10:19:43;;;;;;;5.07;3.28;;;;;;;16.43;34.21;101778.75;4918017;29;20186;-66
2022/01/14 10:22:29;;;;;;;5.43;3.63;;;;;;;16.13;33.66;101771.28;4909091;29;20051;-66
2022/01/14 10:24:59;;;;;;;5.50;2.77;;;;;;;15.90;33.90;101775.59;4907736;29;20741;-66
2022/01/14 10:27:30;;;;;;;6.95;2.63;;;;;;;15.50;34.47;101752.03;4905491;29;20434;-66
2022/01/14 10:30:14;;;;;;;5.77;2.60;;;;;;;15.60;34.36;101774.53;4909754;29;20562;-66
2022/01/14 10:32:43;;;;;;;3.17;2.33;;;;;;;15.38;34.36;101763.56;4909878;29;20048;-66
2022/01/14 10:35:17;;;;;;;2.45;1.95;;;;;;;15.36;34.68;101777.09;4923525;29;20138;-65
2022/01/14 10:37:46;;;;;;;4.47;2.80;;;;;;;15.32;34.55;101776.81;4910144;29;20146;-67
2022/01/14 10:40:17;;;;;;;2.03;1.70;;;;;;;15.34;34.60;101780.19;4908138;29;20474;-67
2022/01/14 10:42:45;;;;;;;4.33;2.50;;;;;;;15.37;34.53;101779.59;4912385;29;20160;-67
2022/01/14 10:45:24;;;;;;;2.63;2.17;;;;;;;15.31;34.63;101769.47;4912512;29;20839;-67
2022/01/14 10:47:52;;;;;;;7.00;3.77;;;;;;;15.54;34.57;101784.94;4917456;29;20587;-66
2022/01/14 10:50:43;;;;;;;4.73;2.33;;;;;;;15.70;34.18;101782.97;4917201;29;20051;-67
2022/01/14 10:53:14;;;;;;;4.97;2.47;;;;;;;15.78;34.06;101787.19;4914966;29;20103;-67
2022/01/14 10:55:50;;;;;;;4.78;2.95;;;;;;;15.87;33.78;101789.13;4913027;29;20413;-66
2022/01/14 10:58:25;;;;;;;4.28;2.67;;;;;;;15.71;33.92;101783.81;4911391;29;20072;-68
2022/01/14 11:01:04;;;;;;;7.13;3.90;;;;;;;15.87;34.35;101785.47;4916909;29;20131;-67
2022/01/14 11:03:33;;;;;;;3.35;2.78;;;;;;;15.83;33.58;101787.19;4913062;29;20456;-67
2022/01/14 11:06:19;;;;;;;;;;;;;;;15.44;34.54;101778.50;4903985;29;20419;-67
2022/01/14 11:08:48;;;;;;;3.63;2.65;;;;;;;15.73;34.12;101775.94;4911649;29;19938;-65
2022/01/14 11:11:16;;;;;;;7.60;3.17;;;;;;;15.91;34.28;101777.28;4913857;29;20076;-66
2022/01/14 11:13:44;;;;;;;5.50;3.60;;;;;;;16.22;33.94;101784.50;4907824;29;20474;-66
2022/01/14 11:16:12;;;;;;;6.88;3.72;;;;;;;15.98;33.90;101750.50;4914369;29;20099;-66
2022/01/14 11:18:40;;;;;;;3.28;2.33;;;;;;;16.16;33.83;101785.63;4905432;29;20062;-66
2022/01/14 11:23:52;;;;;;;6.00;3.67;;;;;;;16.40;33.49;101780.16;4911231;29;20620;-67
2022/01/14 11:26:21;;;;;;;6.10;4.13;;;;;;;16.45;33.31;101776.50;4907904;29;20503;-67
2022/01/14 11:28:48;;;;;;;5.60;3.70;;;;;;;16.45;33.20;101784.94;4910827;29;20064;-67
2022/01/14 11:31:28;;;;;;;3.90;3.53;;;;;;;16.63;33.18;101766.50;4909990;29;20066;-67
2022/01/14 11:33:57;;;;;;;5.85;3.60;;;;;;;16.55;32.99;101779.25;4913681;29;20052;-66
2022/01/14 11:36:25;;;;;;;8.70;5.20;;;;;;;16.29;32.46;101768.09;4941189;29;20147;-67
2022/01/14 11:38:52;;;;;;;7.60;3.80;;;;;;;16.22;33.20;101761.09;4912856;29;20087;-67
2022/01/14 11:41:52;;;;;;;5.47;3.80;;;;;;;16.47;32.92;101757.28;4909972;29;20095;-67
2022/01/14 11:44:42;;;;;;;7.03;4.40;;;;;;;16.74;32.65;101763.34;4907310;29;20075;-66
2022/01/14 11:47:41;;;;;;;7.15;4.32;;;;;;;16.78;31.85;101770.09;4909100;29;20143;-67
2022/01/14 11:50:23;;;;;;;5.13;3.97;;;;;;;16.99;32.06;101758.66;4908112;29;20103;-65
2022/01/14 11:52:51;;;;;;;6.63;4.28;;;;;;;17.46;31.47;101768.38;4917250;29;20071;-67
2022/01/14 11:55:21;;;;;;;11.43;6.00;;;;;;;18.10;31.34;101755.84;4942241;29;20131;-68
2022/01/14 11:57:55;;;;;;;4.18;3.78;;;;;;;18.24;30.38;101745.47;4906770;29;20052;-67
2022/01/14 12:00:25;;;;;;;8.52;5.85;;;;;;;18.54;30.29;101732.03;4909147;29;20047;-67
2022/01/14 12:03:15;;;;;;;;;;;;;;;18.72;29.23;101726.72;4905339;29;20108;-66
2022/01/14 12:06:05;;;;;;;5.13;3.30;;;;;;;18.77;29.56;101735.09;4910993;29;19930;-67
2022/01/14 12:08:37;;;;;;;5.18;3.85;;;;;;;18.84;29.60;101724.25;4915775;29;20117;-66
2022/01/14 12:11:07;;;;;;;14.38;5.82;;;;;;;19.18;29.03;101736.13;4914801;29;20063;-67
2022/01/14 12:14:03;;;;;;;3.15;2.85;;;;;;;19.37;28.60;101727.56;4916320;29;20050;-67
2022/01/14 12:19:03;;;;;;;4.82;3.65;;;;;;;19.53;28.31;101730.94;4913616;29;20080;-66
2022/01/14 12:21:42;;;;;;;11.52;5.72;;;;;;;19.96;28.14;101727.84;4908850;29;20103;-68